sensor_id;sensor_type;location;lat;lon;timestamp;temperature;humidity
15231;DHT22;32569;51.762;8.564;2022-11-15T00:01:56;8.30;99.90
15231;DHT22;32569;51.762;8.564;2022-11-15T00:04:22;8.40;99.90
15231;DHT22;32569;51.762;8.564;2022-11-15T00:06:49;8.50;99.90
15231;DHT22;32569;51.762;8.564;2022-11-15T00:09:17;8.50;99.90
15231;DHT22;32569;51.762;8.564;2022-11-15T00:11:44;8.40;99.90
15231;DHT22;32569;51.762;8.564;2022-11-15T00:14:11;8.40;99.90
15231;DHT22;32569;51.762;8.564;2022-11-15T00:16:40;8.50;99.90
15231;DHT22;32569;51.762;8.564;2022-11-15T00:19:06;8.50;99.90
15231;DHT22;32569;51.762;8.564;2022-11-15T00:21:33;8.60;99.90
15231;DHT22;32569;51.762;8.564;2022-11-15T00:24:00;8.70;99.90
15231;DHT22;32569;51.762;8.564;2022-11-15T00:26:28;8.80;99.90
15231;DHT22;32569;51.762;8.564;2022-11-15T00:28:55;8.90;99.90
15231;DHT22;32569;51.762;8.564;2022-11-15T00:31:22;9.00;99.90
15231;DHT22;32569;51.762;8.564;2022-11-15T00:33:48;9.00;99.90
15231;DHT22;32569;51.762;8.564;2022-11-15T00:36:15;9.10;99.90
15231;DHT22;32569;51.762;8.564;2022-11-15T00:38:42;9.10;99.90
15231;DHT22;32569;51.762;8.564;2022-11-15T00:41:09;9.10;99.90
15231;DHT22;32569;51.762;8.564;2022-11-15T00:43:37;9.20;99.90
15231;DHT22;32569;51.762;8.564;2022-11-15T00:46:05;9.30;99.90
15231;DHT22;32569;51.762;8.564;2022-11-15T00:48:33;9.30;99.90
15231;DHT22;32569;51.762;8.564;2022-11-15T00:51:00;9.30;99.90
15231;DHT22;32569;51.762;8.564;2022-11-15T00:53:27;9.30;99.90
15231;DHT22;32569;51.762;8.564;2022-11-15T00:55:54;9.40;99.90
15231;DHT22;32569;51.762;8.564;2022-11-15T00:58:20;9.40;99.90
15231;DHT22;32569;51.762;8.564;2022-11-15T01:00:48;9.50;99.90
15231;DHT22;32569;51.762;8.564;2022-11-15T01:03:15;9.50;99.90
15231;DHT22;32569;51.762;8.564;2022-11-15T01:05:42;9.50;99.90
15231;DHT22;32569;51.762;8.564;2022-11-15T01:08:12;9.60;99.90
15231;DHT22;32569;51.762;8.564;2022-11-15T01:10:38;9.60;99.90
15231;DHT22;32569;51.762;8.564;2022-11-15T01:13:05;9.50;99.90
15231;DHT22;32569;51.762;8.564;2022-11-15T01:15:32;9.50;99.90
15231;DHT22;32569;51.762;8.564;2022-11-15T01:18:00;9.60;99.90
15231;DHT22;32569;51.762;8.564;2022-11-15T01:20:27;9.60;99.90
15231;DHT22;32569;51.762;8.564;2022-11-15T01:22:54;9.70;99.90
15231;DHT22;32569;51.762;8.564;2022-11-15T01:25:21;9.70;99.90
15231;DHT22;32569;51.762;8.564;2022-11-15T01:27:48;9.70;99.90
15231;DHT22;32569;51.762;8.564;2022-11-15T01:30:15;9.80;99.90
15231;DHT22;32569;51.762;8.564;2022-11-15T01:32:41;9.80;99.90
15231;DHT22;32569;51.762;8.564;2022-11-15T01:35:10;9.80;99.90
15231;DHT22;32569;51.762;8.564;2022-11-15T01:37:36;9.80;99.90
15231;DHT22;32569;51.762;8.564;2022-11-15T01:40:04;9.70;99.90
15231;DHT22;32569;51.762;8.564;2022-11-15T01:42:31;9.70;99.90
15231;DHT22;32569;51.762;8.564;2022-11-15T01:44:57;9.70;99.90
15231;DHT22;32569;51.762;8.564;2022-11-15T01:47:26;9.60;99.90
15231;DHT22;32569;51.762;8.564;2022-11-15T01:49:57;9.60;99.90
15231;DHT22;32569;51.762;8.564;2022-11-15T01:52:28;9.60;99.90
15231;DHT22;32569;51.762;8.564;2022-11-15T01:54:59;9.50;99.90
15231;DHT22;32569;51.762;8.564;2022-11-15T01:57:27;9.50;99.90
15231;DHT22;32569;51.762;8.564;2022-11-15T01:59:54;9.40;99.90
15231;DHT22;32569;51.762;8.564;2022-11-15T02:02:22;9.40;99.90
15231;DHT22;32569;51.762;8.564;2022-11-15T02:04:49;9.40;99.90
15231;DHT22;32569;51.762;8.564;2022-11-15T02:07:18;9.40;99.90
15231;DHT22;32569;51.762;8.564;2022-11-15T02:09:48;9.40;99.90
15231;DHT22;32569;51.762;8.564;2022-11-15T02:12:19;9.40;99.90
15231;DHT22;32569;51.762;8.564;2022-11-15T02:14:49;9.40;99.90
15231;DHT22;32569;51.762;8.564;2022-11-15T02:17:28;9.30;99.90
15231;DHT22;32569;51.762;8.564;2022-11-15T02:20:32;9.40;99.90
15231;DHT22;32569;51.762;8.564;2022-11-15T02:26:11;9.40;99.90
15231;DHT22;32569;51.762;8.564;2022-11-15T02:28:53;9.40;99.90
15231;DHT22;32569;51.762;8.564;2022-11-15T02:31:28;9.40;99.90
15231;DHT22;32569;51.762;8.564;2022-11-15T02:34:00;9.40;99.90
15231;DHT22;32569;51.762;8.564;2022-11-15T02:36:35;9.50;99.90
15231;DHT22;32569;51.762;8.564;2022-11-15T02:39:10;9.50;99.90
15231;DHT22;32569;51.762;8.564;2022-11-15T02:41:41;9.50;99.90
15231;DHT22;32569;51.762;8.564;2022-11-15T02:44:15;9.60;99.90
15231;DHT22;32569;51.762;8.564;2022-11-15T02:46:46;9.60;99.90
15231;DHT22;32569;51.762;8.564;2022-11-15T02:49:33;9.60;99.90
15231;DHT22;32569;51.762;8.564;2022-11-15T02:52:01;9.70;99.90
15231;DHT22;32569;51.762;8.564;2022-11-15T02:54:30;9.70;99.90
15231;DHT22;32569;51.762;8.564;2022-11-15T02:57:01;9.80;99.90
15231;DHT22;32569;51.762;8.564;2022-11-15T03:00:01;9.80;99.90
15231;DHT22;32569;51.762;8.564;2022-11-15T03:02:51;9.90;99.90
15231;DHT22;32569;51.762;8.564;2022-11-15T03:05:27;10.00;99.90
15231;DHT22;32569;51.762;8.564;2022-11-15T03:08:02;9.90;99.90
15231;DHT22;32569;51.762;8.564;2022-11-15T03:10:39;9.90;99.90
15231;DHT22;32569;51.762;8.564;2022-11-15T03:13:19;9.90;99.90
15231;DHT22;32569;51.762;8.564;2022-11-15T03:15:52;9.90;99.90
15231;DHT22;32569;51.762;8.564;2022-11-15T03:18:25;9.80;99.90
15231;DHT22;32569;51.762;8.564;2022-11-15T03:20:54;9.70;99.90
15231;DHT22;32569;51.762;8.564;2022-11-15T03:23:22;9.70;99.90
15231;DHT22;32569;51.762;8.564;2022-11-15T03:25:50;9.60;99.90
15231;DHT22;32569;51.762;8.564;2022-11-15T03:28:22;9.70;99.90
15231;DHT22;32569;51.762;8.564;2022-11-15T03:30:52;9.60;99.90
15231;DHT22;32569;51.762;8.564;2022-11-15T03:33:22;9.50;99.90
15231;DHT22;32569;51.762;8.564;2022-11-15T03:35:50;9.40;99.90
15231;DHT22;32569;51.762;8.564;2022-11-15T03:38:22;9.40;99.90
15231;DHT22;32569;51.762;8.564;2022-11-15T03:40:53;9.40;99.90
15231;DHT22;32569;51.762;8.564;2022-11-15T03:43:24;9.50;99.90
15231;DHT22;32569;51.762;8.564;2022-11-15T03:45:59;9.40;99.90
15231;DHT22;32569;51.762;8.564;2022-11-15T03:48:33;9.30;99.90
15231;DHT22;32569;51.762;8.564;2022-11-15T03:51:01;9.30;99.90
15231;DHT22;32569;51.762;8.564;2022-11-15T03:53:29;9.30;99.90
15231;DHT22;32569;51.762;8.564;2022-11-15T03:55:57;9.20;99.90
15231;DHT22;32569;51.762;8.564;2022-11-15T03:58:24;9.20;99.90
15231;DHT22;32569;51.762;8.564;2022-11-15T04:00:50;9.20;99.90
15231;DHT22;32569;51.762;8.564;2022-11-15T04:03:17;9.20;99.90
15231;DHT22;32569;51.762;8.564;2022-11-15T04:05:45;9.20;99.90
15231;DHT22;32569;51.762;8.564;2022-11-15T04:08:12;9.20;99.90
15231;DHT22;32569;51.762;8.564;2022-11-15T04:10:39;9.20;99.90
15231;DHT22;32569;51.762;8.564;2022-11-15T04:13:06;9.20;99.90
15231;DHT22;32569;51.762;8.564;2022-11-15T04:15:33;9.20;99.90
15231;DHT22;32569;51.762;8.564;2022-11-15T04:18:00;9.20;99.90
15231;DHT22;32569;51.762;8.564;2022-11-15T04:20:28;9.20;99.90
15231;DHT22;32569;51.762;8.564;2022-11-15T04:23:16;9.30;99.90
15231;DHT22;32569;51.762;8.564;2022-11-15T04:26:02;9.40;99.90
15231;DHT22;32569;51.762;8.564;2022-11-15T04:28:30;9.60;99.90
15231;DHT22;32569;51.762;8.564;2022-11-15T04:30:56;9.60;99.90
15231;DHT22;32569;51.762;8.564;2022-11-15T04:33:23;9.70;99.90
15231;DHT22;32569;51.762;8.564;2022-11-15T04:35:50;9.80;99.90
15231;DHT22;32569;51.762;8.564;2022-11-15T04:38:33;9.90;99.90
15231;DHT22;32569;51.762;8.564;2022-11-15T04:41:00;9.80;99.90
15231;DHT22;32569;51.762;8.564;2022-11-15T04:43:27;9.90;99.90
15231;DHT22;32569;51.762;8.564;2022-11-15T04:45:53;9.80;99.90
15231;DHT22;32569;51.762;8.564;2022-11-15T04:48:20;9.90;99.90
15231;DHT22;32569;51.762;8.564;2022-11-15T04:50:47;9.80;99.90
15231;DHT22;32569;51.762;8.564;2022-11-15T04:53:14;9.80;99.90
15231;DHT22;32569;51.762;8.564;2022-11-15T04:55:45;9.80;99.90
15231;DHT22;32569;51.762;8.564;2022-11-15T04:58:12;9.70;99.90
15231;DHT22;32569;51.762;8.564;2022-11-15T05:00:39;9.70;99.90
15231;DHT22;32569;51.762;8.564;2022-11-15T05:03:06;9.70;99.90
15231;DHT22;32569;51.762;8.564;2022-11-15T05:05:50;9.70;99.90
15231;DHT22;32569;51.762;8.564;2022-11-15T05:08:17;9.70;99.90
15231;DHT22;32569;51.762;8.564;2022-11-15T05:10:45;9.70;99.90
15231;DHT22;32569;51.762;8.564;2022-11-15T05:13:12;9.60;99.90
15231;DHT22;32569;51.762;8.564;2022-11-15T05:15:38;9.60;99.90
15231;DHT22;32569;51.762;8.564;2022-11-15T05:18:05;9.50;99.90
15231;DHT22;32569;51.762;8.564;2022-11-15T05:20:34;9.50;99.90
15231;DHT22;32569;51.762;8.564;2022-11-15T05:23:00;9.50;99.90
15231;DHT22;32569;51.762;8.564;2022-11-15T05:25:27;9.40;99.90
15231;DHT22;32569;51.762;8.564;2022-11-15T05:27:56;9.40;99.90
15231;DHT22;32569;51.762;8.564;2022-11-15T05:30:22;9.50;99.90
15231;DHT22;32569;51.762;8.564;2022-11-15T05:32:49;9.50;99.90
15231;DHT22;32569;51.762;8.564;2022-11-15T05:35:21;9.50;99.90
15231;DHT22;32569;51.762;8.564;2022-11-15T05:37:51;9.50;99.90
15231;DHT22;32569;51.762;8.564;2022-11-15T05:40:17;9.50;99.90
15231;DHT22;32569;51.762;8.564;2022-11-15T05:42:44;9.60;99.90
15231;DHT22;32569;51.762;8.564;2022-11-15T05:45:14;9.50;99.90
15231;DHT22;32569;51.762;8.564;2022-11-15T05:47:41;9.60;99.90
15231;DHT22;32569;51.762;8.564;2022-11-15T05:50:11;9.70;99.90
15231;DHT22;32569;51.762;8.564;2022-11-15T05:52:38;9.70;99.90
15231;DHT22;32569;51.762;8.564;2022-11-15T05:55:07;9.70;99.90
15231;DHT22;32569;51.762;8.564;2022-11-15T05:57:38;9.80;99.90
15231;DHT22;32569;51.762;8.564;2022-11-15T06:00:06;9.90;99.90
15231;DHT22;32569;51.762;8.564;2022-11-15T06:02:35;9.90;99.90
15231;DHT22;32569;51.762;8.564;2022-11-15T06:05:01;9.90;99.90
15231;DHT22;32569;51.762;8.564;2022-11-15T06:07:29;9.90;99.90
15231;DHT22;32569;51.762;8.564;2022-11-15T06:09:57;9.90;99.90
15231;DHT22;32569;51.762;8.564;2022-11-15T06:12:24;9.90;99.90
15231;DHT22;32569;51.762;8.564;2022-11-15T06:14:50;9.90;99.90
15231;DHT22;32569;51.762;8.564;2022-11-15T06:17:17;10.00;99.90
15231;DHT22;32569;51.762;8.564;2022-11-15T06:19:45;10.10;99.90
15231;DHT22;32569;51.762;8.564;2022-11-15T06:22:12;10.20;99.90
15231;DHT22;32569;51.762;8.564;2022-11-15T06:24:39;10.20;99.90
15231;DHT22;32569;51.762;8.564;2022-11-15T06:27:06;10.20;99.90
15231;DHT22;32569;51.762;8.564;2022-11-15T06:29:32;10.30;99.90
15231;DHT22;32569;51.762;8.564;2022-11-15T06:31:59;10.30;99.90
15231;DHT22;32569;51.762;8.564;2022-11-15T06:34:26;10.40;99.90
15231;DHT22;32569;51.762;8.564;2022-11-15T06:36:54;10.40;99.90
15231;DHT22;32569;51.762;8.564;2022-11-15T06:39:21;10.40;99.90
15231;DHT22;32569;51.762;8.564;2022-11-15T06:41:48;10.30;99.90
15231;DHT22;32569;51.762;8.564;2022-11-15T06:44:14;10.30;99.90
15231;DHT22;32569;51.762;8.564;2022-11-15T06:46:44;10.20;99.90
15231;DHT22;32569;51.762;8.564;2022-11-15T06:49:11;10.20;99.90
15231;DHT22;32569;51.762;8.564;2022-11-15T06:51:37;10.20;99.90
15231;DHT22;32569;51.762;8.564;2022-11-15T06:54:06;10.30;99.90
15231;DHT22;32569;51.762;8.564;2022-11-15T06:56:33;10.30;99.90
15231;DHT22;32569;51.762;8.564;2022-11-15T06:59:00;10.30;99.90
15231;DHT22;32569;51.762;8.564;2022-11-15T07:01:27;10.30;99.90
15231;DHT22;32569;51.762;8.564;2022-11-15T07:03:54;10.40;99.90
15231;DHT22;32569;51.762;8.564;2022-11-15T07:06:21;10.40;99.90
15231;DHT22;32569;51.762;8.564;2022-11-15T07:08:48;10.40;99.90
15231;DHT22;32569;51.762;8.564;2022-11-15T07:11:16;10.40;99.90
15231;DHT22;32569;51.762;8.564;2022-11-15T07:13:43;10.50;99.90
15231;DHT22;32569;51.762;8.564;2022-11-15T07:16:10;10.50;99.90
15231;DHT22;32569;51.762;8.564;2022-11-15T07:18:38;10.50;99.90
15231;DHT22;32569;51.762;8.564;2022-11-15T07:21:07;10.60;99.90
15231;DHT22;32569;51.762;8.564;2022-11-15T07:23:35;10.70;99.90
15231;DHT22;32569;51.762;8.564;2022-11-15T07:36:25;10.80;99.90
15231;DHT22;32569;51.762;8.564;2022-11-15T07:38:52;10.90;99.90
15231;DHT22;32569;51.762;8.564;2022-11-15T07:41:19;10.90;99.90
15231;DHT22;32569;51.762;8.564;2022-11-15T07:43:45;11.00;99.90
15231;DHT22;32569;51.762;8.564;2022-11-15T07:46:12;11.00;99.90
15231;DHT22;32569;51.762;8.564;2022-11-15T07:48:39;11.00;99.90
15231;DHT22;32569;51.762;8.564;2022-11-15T07:51:06;11.00;99.90
15231;DHT22;32569;51.762;8.564;2022-11-15T07:53:34;11.00;99.90
15231;DHT22;32569;51.762;8.564;2022-11-15T07:56:01;10.90;99.90
15231;DHT22;32569;51.762;8.564;2022-11-15T07:58:28;10.90;99.90
15231;DHT22;32569;51.762;8.564;2022-11-15T08:00:54;10.90;99.90
15231;DHT22;32569;51.762;8.564;2022-11-15T08:03:22;10.90;99.90
15231;DHT22;32569;51.762;8.564;2022-11-15T08:05:50;10.90;99.90
15231;DHT22;32569;51.762;8.564;2022-11-15T08:08:18;11.00;99.90
15231;DHT22;32569;51.762;8.564;2022-11-15T08:10:46;11.00;99.90
15231;DHT22;32569;51.762;8.564;2022-11-15T08:13:13;11.10;99.90
15231;DHT22;32569;51.762;8.564;2022-11-15T08:15:40;11.10;99.90
15231;DHT22;32569;51.762;8.564;2022-11-15T08:18:10;11.10;99.90
15231;DHT22;32569;51.762;8.564;2022-11-15T08:20:38;11.10;99.90
15231;DHT22;32569;51.762;8.564;2022-11-15T08:23:05;11.20;99.90
15231;DHT22;32569;51.762;8.564;2022-11-15T08:25:34;11.30;99.90
15231;DHT22;32569;51.762;8.564;2022-11-15T08:28:05;11.30;99.90
15231;DHT22;32569;51.762;8.564;2022-11-15T08:30:35;11.40;99.90
15231;DHT22;32569;51.762;8.564;2022-11-15T08:33:03;11.50;99.90
15231;DHT22;32569;51.762;8.564;2022-11-15T08:35:30;11.50;99.90
15231;DHT22;32569;51.762;8.564;2022-11-15T08:37:57;11.50;99.90
15231;DHT22;32569;51.762;8.564;2022-11-15T08:40:24;11.60;99.90
15231;DHT22;32569;51.762;8.564;2022-11-15T08:42:52;11.60;99.90
15231;DHT22;32569;51.762;8.564;2022-11-15T08:45:21;11.60;99.90
15231;DHT22;32569;51.762;8.564;2022-11-15T08:47:48;11.60;99.90
15231;DHT22;32569;51.762;8.564;2022-11-15T08:50:15;11.60;99.90
15231;DHT22;32569;51.762;8.564;2022-11-15T08:52:42;11.60;99.90
15231;DHT22;32569;51.762;8.564;2022-11-15T08:55:09;11.90;99.90
15231;DHT22;32569;51.762;8.564;2022-11-15T08:57:36;12.00;99.90
15231;DHT22;32569;51.762;8.564;2022-11-15T09:00:03;12.10;99.90
15231;DHT22;32569;51.762;8.564;2022-11-15T09:02:32;12.10;99.90
15231;DHT22;32569;51.762;8.564;2022-11-15T09:04:58;12.30;99.90
15231;DHT22;32569;51.762;8.564;2022-11-15T09:07:26;12.50;99.90
15231;DHT22;32569;51.762;8.564;2022-11-15T09:09:55;12.60;99.90
15231;DHT22;32569;51.762;8.564;2022-11-15T09:12:22;12.80;99.90
15231;DHT22;32569;51.762;8.564;2022-11-15T09:14:49;12.90;99.90
15231;DHT22;32569;51.762;8.564;2022-11-15T09:17:15;12.90;99.90
15231;DHT22;32569;51.762;8.564;2022-11-15T09:19:44;12.90;99.90
15231;DHT22;32569;51.762;8.564;2022-11-15T09:22:10;12.90;99.90
15231;DHT22;32569;51.762;8.564;2022-11-15T09:24:37;12.90;99.90
15231;DHT22;32569;51.762;8.564;2022-11-15T09:27:04;12.90;99.90
15231;DHT22;32569;51.762;8.564;2022-11-15T09:29:31;12.90;99.90
15231;DHT22;32569;51.762;8.564;2022-11-15T09:31:59;12.90;99.90
15231;DHT22;32569;51.762;8.564;2022-11-15T09:34:26;12.90;99.90
15231;DHT22;32569;51.762;8.564;2022-11-15T09:36:54;12.90;99.90
15231;DHT22;32569;51.762;8.564;2022-11-15T09:39:21;12.90;99.90
15231;DHT22;32569;51.762;8.564;2022-11-15T09:41:59;12.90;99.90
15231;DHT22;32569;51.762;8.564;2022-11-15T09:44:38;12.90;99.90
15231;DHT22;32569;51.762;8.564;2022-11-15T09:47:28;12.90;99.90
15231;DHT22;32569;51.762;8.564;2022-11-15T09:50:08;13.00;99.90
15231;DHT22;32569;51.762;8.564;2022-11-15T09:52:41;13.10;99.90
15231;DHT22;32569;51.762;8.564;2022-11-15T09:55:10;13.10;99.90
15231;DHT22;32569;51.762;8.564;2022-11-15T09:57:44;13.10;99.90
15231;DHT22;32569;51.762;8.564;2022-11-15T10:00:16;13.10;99.90
15231;DHT22;32569;51.762;8.564;2022-11-15T10:02:58;13.20;99.90
15231;DHT22;32569;51.762;8.564;2022-11-15T10:05:29;13.30;99.90
15231;DHT22;32569;51.762;8.564;2022-11-15T10:08:03;13.30;99.90
15231;DHT22;32569;51.762;8.564;2022-11-15T10:10:38;13.40;99.90
15231;DHT22;32569;51.762;8.564;2022-11-15T10:13:12;13.40;99.90
15231;DHT22;32569;51.762;8.564;2022-11-15T10:15:42;13.40;99.90
15231;DHT22;32569;51.762;8.564;2022-11-15T10:18:15;13.40;99.90
15231;DHT22;32569;51.762;8.564;2022-11-15T10:20:48;13.40;99.90
15231;DHT22;32569;51.762;8.564;2022-11-15T10:23:19;13.50;99.90
15231;DHT22;32569;51.762;8.564;2022-11-15T10:25:47;13.50;99.90
15231;DHT22;32569;51.762;8.564;2022-11-15T10:28:21;13.50;99.90
15231;DHT22;32569;51.762;8.564;2022-11-15T10:30:53;13.50;99.90
15231;DHT22;32569;51.762;8.564;2022-11-15T10:33:25;13.50;99.90
15231;DHT22;32569;51.762;8.564;2022-11-15T10:36:17;13.50;99.90
15231;DHT22;32569;51.762;8.564;2022-11-15T10:38:56;13.60;99.90
15231;DHT22;32569;51.762;8.564;2022-11-15T10:41:31;13.50;99.90
15231;DHT22;32569;51.762;8.564;2022-11-15T10:44:19;13.60;99.90
15231;DHT22;32569;51.762;8.564;2022-11-15T10:46:48;13.60;99.90
15231;DHT22;32569;51.762;8.564;2022-11-15T10:49:17;13.60;99.90
15231;DHT22;32569;51.762;8.564;2022-11-15T10:51:47;13.60;99.90
15231;DHT22;32569;51.762;8.564;2022-11-15T10:54:23;13.60;99.90
15231;DHT22;32569;51.762;8.564;2022-11-15T10:56:51;13.60;99.90
15231;DHT22;32569;51.762;8.564;2022-11-15T10:59:23;13.60;99.90
15231;DHT22;32569;51.762;8.564;2022-11-15T11:01:50;13.60;99.90
15231;DHT22;32569;51.762;8.564;2022-11-15T11:04:17;13.70;99.90
15231;DHT22;32569;51.762;8.564;2022-11-15T11:06:50;13.60;99.90
15231;DHT22;32569;51.762;8.564;2022-11-15T11:09:37;13.60;99.90
15231;DHT22;32569;51.762;8.564;2022-11-15T11:12:06;13.60;99.90
15231;DHT22;32569;51.762;8.564;2022-11-15T11:14:37;13.50;99.90
15231;DHT22;32569;51.762;8.564;2022-11-15T11:17:10;13.50;99.90
15231;DHT22;32569;51.762;8.564;2022-11-15T11:19:49;13.40;99.90
15231;DHT22;32569;51.762;8.564;2022-11-15T11:22:25;13.40;99.90
15231;DHT22;32569;51.762;8.564;2022-11-15T11:25:15;13.40;99.90
15231;DHT22;32569;51.762;8.564;2022-11-15T11:27:57;13.60;99.90
15231;DHT22;32569;51.762;8.564;2022-11-15T11:30:34;13.70;99.90
15231;DHT22;32569;51.762;8.564;2022-11-15T11:33:12;13.70;99.90
15231;DHT22;32569;51.762;8.564;2022-11-15T11:35:50;13.60;99.90
15231;DHT22;32569;51.762;8.564;2022-11-15T11:38:34;13.60;99.90
15231;DHT22;32569;51.762;8.564;2022-11-15T11:41:10;13.70;99.90
15231;DHT22;32569;51.762;8.564;2022-11-15T11:43:47;13.80;99.90
15231;DHT22;32569;51.762;8.564;2022-11-15T11:46:30;13.80;99.90
15231;DHT22;32569;51.762;8.564;2022-11-15T11:49:08;13.80;99.90
15231;DHT22;32569;51.762;8.564;2022-11-15T11:51:39;13.70;99.90
15231;DHT22;32569;51.762;8.564;2022-11-15T11:54:12;13.70;99.90
15231;DHT22;32569;51.762;8.564;2022-11-15T11:56:44;13.80;99.90
15231;DHT22;32569;51.762;8.564;2022-11-15T11:59:18;13.90;99.90
15231;DHT22;32569;51.762;8.564;2022-11-15T12:01:47;14.10;99.90
15231;DHT22;32569;51.762;8.564;2022-11-15T12:04:18;14.10;99.90
15231;DHT22;32569;51.762;8.564;2022-11-15T12:06:50;14.10;99.90
15231;DHT22;32569;51.762;8.564;2022-11-15T12:09:21;14.10;99.90
15231;DHT22;32569;51.762;8.564;2022-11-15T12:11:58;13.90;99.90
15231;DHT22;32569;51.762;8.564;2022-11-15T12:14:32;14.00;99.90
15231;DHT22;32569;51.762;8.564;2022-11-15T12:16:59;14.00;99.90
15231;DHT22;32569;51.762;8.564;2022-11-15T12:19:26;14.00;99.90
15231;DHT22;32569;51.762;8.564;2022-11-15T12:22:00;13.80;99.90
15231;DHT22;32569;51.762;8.564;2022-11-15T12:24:33;13.80;99.90
15231;DHT22;32569;51.762;8.564;2022-11-15T12:27:06;13.90;99.90
15231;DHT22;32569;51.762;8.564;2022-11-15T12:29:38;14.00;99.90
15231;DHT22;32569;51.762;8.564;2022-11-15T12:32:17;14.10;99.50
15231;DHT22;32569;51.762;8.564;2022-11-15T12:34:47;14.20;99.50
15231;DHT22;32569;51.762;8.564;2022-11-15T12:40:39;14.10;99.60
15231;DHT22;32569;51.762;8.564;2022-11-15T12:43:41;14.20;99.40
15231;DHT22;32569;51.762;8.564;2022-11-15T12:46:20;14.10;99.50
15231;DHT22;32569;51.762;8.564;2022-11-15T12:48:53;14.10;99.20
15231;DHT22;32569;51.762;8.564;2022-11-15T12:51:22;14.10;98.70
15231;DHT22;32569;51.762;8.564;2022-11-15T12:53:49;14.00;98.60
15231;DHT22;32569;51.762;8.564;2022-11-15T12:56:23;14.00;98.60
15231;DHT22;32569;51.762;8.564;2022-11-15T12:58:54;14.00;98.80
15231;DHT22;32569;51.762;8.564;2022-11-15T13:01:59;14.00;98.90
15231;DHT22;32569;51.762;8.564;2022-11-15T13:04:28;14.00;98.60
15231;DHT22;32569;51.762;8.564;2022-11-15T13:06:58;14.20;99.50
15231;DHT22;32569;51.762;8.564;2022-11-15T13:09:54;14.40;99.90
15231;DHT22;32569;51.762;8.564;2022-11-15T13:12:50;14.40;99.90
15231;DHT22;32569;51.762;8.564;2022-11-15T13:15:37;14.40;99.90
15231;DHT22;32569;51.762;8.564;2022-11-15T13:18:27;14.60;99.90
15231;DHT22;32569;51.762;8.564;2022-11-15T13:20:54;14.60;99.90
15231;DHT22;32569;51.762;8.564;2022-11-15T13:23:22;14.60;99.90
15231;DHT22;32569;51.762;8.564;2022-11-15T13:26:09;14.60;99.90
15231;DHT22;32569;51.762;8.564;2022-11-15T13:28:39;14.70;99.90
15231;DHT22;32569;51.762;8.564;2022-11-15T13:31:34;14.70;99.90
15231;DHT22;32569;51.762;8.564;2022-11-15T13:34:13;14.70;99.50
15231;DHT22;32569;51.762;8.564;2022-11-15T13:36:43;14.70;99.10
15231;DHT22;32569;51.762;8.564;2022-11-15T13:39:23;14.70;99.20
15231;DHT22;32569;51.762;8.564;2022-11-15T13:41:52;14.70;99.00
15231;DHT22;32569;51.762;8.564;2022-11-15T13:44:21;14.60;98.80
15231;DHT22;32569;51.762;8.564;2022-11-15T13:47:00;14.70;98.90
15231;DHT22;32569;51.762;8.564;2022-11-15T13:49:29;14.60;99.20
15231;DHT22;32569;51.762;8.564;2022-11-15T13:51:56;14.60;99.40
15231;DHT22;32569;51.762;8.564;2022-11-15T13:54:27;14.60;99.60
15231;DHT22;32569;51.762;8.564;2022-11-15T13:56:57;14.40;99.90
15231;DHT22;32569;51.762;8.564;2022-11-15T13:59:27;14.50;99.70
15231;DHT22;32569;51.762;8.564;2022-11-15T14:01:57;14.40;99.70
15231;DHT22;32569;51.762;8.564;2022-11-15T14:04:27;14.40;99.90
15231;DHT22;32569;51.762;8.564;2022-11-15T14:06:57;14.50;99.40
15231;DHT22;32569;51.762;8.564;2022-11-15T14:09:31;14.40;99.50
15231;DHT22;32569;51.762;8.564;2022-11-15T14:12:00;14.40;98.50
15231;DHT22;32569;51.762;8.564;2022-11-15T14:14:28;14.30;97.90
15231;DHT22;32569;51.762;8.564;2022-11-15T14:16:58;14.20;97.70
15231;DHT22;32569;51.762;8.564;2022-11-15T14:19:39;14.20;97.70
15231;DHT22;32569;51.762;8.564;2022-11-15T14:22:19;14.10;97.30
15231;DHT22;32569;51.762;8.564;2022-11-15T14:27:30;14.10;97.50
15231;DHT22;32569;51.762;8.564;2022-11-15T14:29:58;14.10;98.00
15231;DHT22;32569;51.762;8.564;2022-11-15T14:32:28;14.10;98.60
15231;DHT22;32569;51.762;8.564;2022-11-15T14:34:57;14.00;99.00
15231;DHT22;32569;51.762;8.564;2022-11-15T14:37:26;14.00;99.70
15231;DHT22;32569;51.762;8.564;2022-11-15T14:39:54;14.00;99.90
15231;DHT22;32569;51.762;8.564;2022-11-15T14:42:22;13.90;99.90
15231;DHT22;32569;51.762;8.564;2022-11-15T14:44:49;13.90;99.90
15231;DHT22;32569;51.762;8.564;2022-11-15T14:47:16;13.80;99.90
15231;DHT22;32569;51.762;8.564;2022-11-15T14:49:44;13.70;99.90
15231;DHT22;32569;51.762;8.564;2022-11-15T14:52:24;13.70;99.90
15231;DHT22;32569;51.762;8.564;2022-11-15T14:54:51;13.70;99.90
15231;DHT22;32569;51.762;8.564;2022-11-15T14:57:19;13.70;99.90
15231;DHT22;32569;51.762;8.564;2022-11-15T14:59:46;13.70;99.90
15231;DHT22;32569;51.762;8.564;2022-11-15T15:02:17;13.60;99.90
15231;DHT22;32569;51.762;8.564;2022-11-15T15:04:45;13.60;99.90
15231;DHT22;32569;51.762;8.564;2022-11-15T15:07:12;13.70;99.90
15231;DHT22;32569;51.762;8.564;2022-11-15T15:09:39;13.60;99.90
15231;DHT22;32569;51.762;8.564;2022-11-15T15:12:14;13.50;99.90
15231;DHT22;32569;51.762;8.564;2022-11-15T15:14:42;13.50;99.90
15231;DHT22;32569;51.762;8.564;2022-11-15T15:17:09;13.50;99.90
15231;DHT22;32569;51.762;8.564;2022-11-15T15:19:36;13.50;99.90
15231;DHT22;32569;51.762;8.564;2022-11-15T15:22:04;13.50;99.90
15231;DHT22;32569;51.762;8.564;2022-11-15T15:24:31;13.40;99.90
15231;DHT22;32569;51.762;8.564;2022-11-15T15:26:58;13.40;99.90
15231;DHT22;32569;51.762;8.564;2022-11-15T15:29:24;13.40;99.90
15231;DHT22;32569;51.762;8.564;2022-11-15T15:31:51;13.40;99.90
15231;DHT22;32569;51.762;8.564;2022-11-15T15:34:18;13.40;99.90
15231;DHT22;32569;51.762;8.564;2022-11-15T15:36:45;13.40;99.90
15231;DHT22;32569;51.762;8.564;2022-11-15T15:39:13;13.30;99.90
15231;DHT22;32569;51.762;8.564;2022-11-15T15:41:41;13.30;99.90
15231;DHT22;32569;51.762;8.564;2022-11-15T15:44:07;13.30;99.90
15231;DHT22;32569;51.762;8.564;2022-11-15T15:46:34;13.30;99.90
15231;DHT22;32569;51.762;8.564;2022-11-15T15:49:02;13.30;99.90
15231;DHT22;32569;51.762;8.564;2022-11-15T15:51:29;13.30;99.90
15231;DHT22;32569;51.762;8.564;2022-11-15T15:53:56;13.20;99.90
15231;DHT22;32569;51.762;8.564;2022-11-15T15:56:24;13.20;99.90
15231;DHT22;32569;51.762;8.564;2022-11-15T15:58:51;13.20;99.90
15231;DHT22;32569;51.762;8.564;2022-11-15T16:01:19;13.10;99.90
15231;DHT22;32569;51.762;8.564;2022-11-15T16:03:46;13.10;99.90
15231;DHT22;32569;51.762;8.564;2022-11-15T16:06:34;13.10;99.90
15231;DHT22;32569;51.762;8.564;2022-11-15T16:09:01;13.10;99.90
15231;DHT22;32569;51.762;8.564;2022-11-15T16:11:30;13.10;99.90
15231;DHT22;32569;51.762;8.564;2022-11-15T16:13:57;13.10;99.90
15231;DHT22;32569;51.762;8.564;2022-11-15T16:16:24;13.20;99.90
15231;DHT22;32569;51.762;8.564;2022-11-15T16:18:52;13.20;99.90